Time;durP1;ratioP1;P1;durP2;ratioP2;P2;SDS_P1;SDS_P2;PMS_P1;PMS_P2;Temp;Humidity;BMP_temperature;BMP_pressure;BME280_temperature;BME280_humidity;BME280_pressure;Samples;Min_cycle;Max_cycle;Signal;HPM_P1;HPM_P2
2021/12/25 00:00:46;;;;;;;8.83;5.23;;;6.90;99.90;;;;;;4942230;28;20114;-90
2021/12/25 00:03:12;;;;;;;8.00;4.93;;;6.90;99.90;;;;;;4942351;28;20043;-90
2021/12/25 00:05:37;;;;;;;6.97;4.93;;;6.90;99.90;;;;;;4958181;28;20449;-90
2021/12/25 00:08:03;;;;;;;11.10;5.40;;;6.80;99.90;;;;;;4958209;28;20039;-90
2021/12/25 00:10:30;;;;;;;6.83;5.03;;;6.80;99.90;;;;;;4941979;28;20173;-90
2021/12/25 00:12:57;;;;;;;8.33;5.27;;;6.90;99.90;;;;;;4941806;28;20129;-90
2021/12/25 00:15:23;;;;;;;9.37;5.40;;;6.90;99.90;;;;;;4957800;28;20059;-90
2021/12/25 00:17:49;;;;;;;7.30;5.27;;;6.90;99.90;;;;;;4957233;28;20069;-90
2021/12/25 00:20:15;;;;;;;8.53;5.40;;;6.80;99.90;;;;;;4941318;28;20085;-90
2021/12/25 00:22:41;;;;;;;8.33;5.50;;;6.80;99.90;;;;;;4974737;28;20027;-90
2021/12/25 00:25:07;;;;;;;8.07;5.73;;;6.80;99.90;;;;;;4941696;28;20030;-90
2021/12/25 00:30:40;;;;;;;7.23;5.23;;;6.80;99.90;;;;;;4957433;28;20042;-90
2021/12/25 00:33:29;;;;;;;8.73;5.40;;;6.80;99.90;;;;;;4957367;28;20486;-90
2021/12/25 00:35:51;;;;;;;7.23;5.20;;;6.80;99.90;;;;;;4957442;28;20847;-91
2021/12/25 00:38:17;;;;;;;7.93;5.43;;;6.70;99.90;;;;;;4941279;28;20122;-89
2021/12/25 00:40:43;;;;;;;8.17;5.57;;;6.80;99.90;;;;;;4957138;28;20034;-90
2021/12/25 00:43:10;;;;;;;7.83;5.93;;;6.70;99.90;;;;;;4957382;28;20031;-90
2021/12/25 00:45:35;;;;;;;8.27;6.17;;;6.70;99.90;;;;;;4941164;28;20367;-90
2021/12/25 00:48:01;;;;;;;8.87;6.60;;;6.70;99.90;;;;;;4940710;28;20027;-90
2021/12/25 00:50:27;;;;;;;9.90;6.60;;;6.70;99.90;;;;;;4941219;28;20027;-90
2021/12/25 00:52:53;;;;;;;9.83;7.17;;;6.60;99.90;;;;;;4957000;28;20039;-90
2021/12/25 00:55:19;;;;;;;10.73;7.07;;;6.60;99.90;;;;;;4957114;28;20142;-90
2021/12/25 00:57:44;;;;;;;10.20;7.73;;;6.60;99.90;;;;;;4956406;28;20043;-90
2021/12/25 01:00:12;;;;;;;11.13;7.43;;;6.50;99.90;;;;;;4940484;28;20030;-90
2021/12/25 01:02:41;;;;;;;8.53;6.93;;;6.50;99.90;;;;;;4941197;28;20062;-90
2021/12/25 01:05:08;;;;;;;11.07;8.05;;;6.50;99.90;;;;;;4941275;28;20031;-90
2021/12/25 01:07:35;;;;;;;11.10;8.27;;;6.60;99.90;;;;;;4956318;28;20042;-90
2021/12/25 01:10:04;;;;;;;10.33;7.70;;;6.50;99.90;;;;;;4940809;28;20114;-90
2021/12/25 01:12:37;;;;;;;12.05;7.97;;;6.50;99.90;;;;;;4940842;28;20433;-90
2021/12/25 01:15:06;;;;;;;10.03;7.83;;;6.50;99.90;;;;;;4940797;28;20038;-91
2021/12/25 01:18:10;;;;;;;11.00;8.20;;;6.50;99.90;;;;;;4942141;28;20034;-90
2021/12/25 01:32:42;;;;;;;13.63;10.60;;;6.50;99.90;;;;;;4921973;28;20042;-90
2021/12/25 01:34:55;;;;;;;14.48;10.88;;;6.50;99.90;;;;;;4951198;28;20031;-90
2021/12/25 01:37:57;;;;;;;14.33;10.67;;;6.50;99.90;;;;;;4973410;28;20058;-90
2021/12/25 01:41:13;;;;;;;16.20;11.23;;;6.40;99.90;;;;;;4973533;28;20114;-90
2021/12/25 01:49:49;;;;;;;17.00;12.33;;;6.30;99.90;;;;;;4973677;28;20549;-90
2021/12/25 01:52:15;;;;;;;17.23;12.97;;;6.30;99.90;;;;;;4940498;28;20069;-89
2021/12/25 01:54:41;;;;;;;18.90;13.67;;;6.30;99.90;;;;;;4940488;28;20113;-89
2021/12/25 01:57:08;;;;;;;16.93;13.30;;;6.30;99.90;;;;;;4940663;28;20038;-90
2021/12/25 01:59:34;;;;;;;21.63;15.47;;;6.20;99.90;;;;;;4940317;28;20038;-90
2021/12/25 02:02:00;;;;;;;22.97;15.00;;;6.20;99.90;;;;;;4956453;28;20023;-90
2021/12/25 02:04:26;;;;;;;22.23;15.93;;;6.20;99.90;;;;;;4940344;28;20027;-89
2021/12/25 02:06:52;;;;;;;22.07;16.07;;;6.20;99.90;;;;;;4940323;28;20034;-90
2021/12/25 02:09:18;;;;;;;21.67;14.90;;;6.10;99.90;;;;;;4956201;28;20027;-90
2021/12/25 02:11:44;;;;;;;18.53;14.57;;;6.10;99.90;;;;;;4941224;28;20535;-91
2021/12/25 02:14:10;;;;;;;18.60;14.70;;;6.10;99.90;;;;;;4944101;28;20030;-90
2021/12/25 02:16:50;;;;;;;17.07;13.30;;;6.00;99.90;;;;;;4944009;28;20037;-89
2021/12/25 02:19:42;;;;;;;15.80;12.10;;;6.10;99.90;;;;;;4944567;28;20035;-90
2021/12/25 02:22:09;;;;;;;16.10;11.77;;;6.00;99.90;;;;;;4944086;28;20121;-89
2021/12/25 02:24:36;;;;;;;14.17;10.10;;;6.00;99.90;;;;;;4944296;28;20042;-90
2021/12/25 02:27:04;;;;;;;12.87;9.67;;;5.90;99.90;;;;;;4943845;28;20501;-91
2021/12/25 02:29:33;;;;;;;10.97;8.70;;;6.00;99.90;;;;;;4943871;28;20035;-90
2021/12/25 02:32:00;;;;;;;;;;;5.90;99.90;;;;;;4944319;28;20031;-90
2021/12/25 02:34:26;;;;;;;9.87;7.87;;;6.00;99.90;;;;;;4943960;28;19906;-90
2021/12/25 02:36:52;;;;;;;10.70;7.53;;;5.90;99.90;;;;;;4943589;28;20035;-91
2021/12/25 02:39:18;;;;;;;9.90;7.37;;;5.90;99.90;;;;;;4943589;28;20035;-90
2021/12/25 02:41:44;;;;;;;9.43;7.27;;;5.90;99.90;;;;;;4943477;28;20478;-89
2021/12/25 02:44:10;;;;;;;9.70;7.60;;;5.90;99.90;;;;;;4943511;28;20037;-91
2021/12/25 02:46:48;;;;;;;8.73;7.10;;;5.90;99.90;;;;;;4944839;28;20039;-90
2021/12/25 02:49:14;;;;;;;9.73;7.23;;;5.90;99.90;;;;;;4943362;28;20485;-90
2021/12/25 02:51:45;;;;;;;9.07;7.43;;;5.80;99.90;;;;;;4943694;28;20030;-90
2021/12/25 02:54:12;;;;;;;9.13;7.73;;;5.80;99.90;;;;;;4959366;28;20066;-90
2021/12/25 02:56:39;;;;;;;9.03;7.23;;;5.90;99.90;;;;;;4943635;28;20054;-90
2021/12/25 02:59:06;;;;;;;10.50;8.53;;;5.80;99.90;;;;;;4943583;28;20030;-90
2021/12/25 03:01:31;;;;;;;11.17;8.87;;;5.90;99.90;;;;;;4943155;28;20532;-90
2021/12/25 03:03:58;;;;;;;10.83;9.13;;;5.80;99.90;;;;;;4943389;28;20518;-89
2021/12/25 03:06:25;;;;;;;11.80;9.07;;;5.80;99.90;;;;;;4943208;28;20023;-89
2021/12/25 03:08:51;;;;;;;10.17;8.60;;;5.90;99.90;;;;;;4943111;28;20050;-90
2021/12/25 03:11:17;;;;;;;10.23;8.27;;;5.80;99.90;;;;;;4943044;28;20037;-91
2021/12/25 03:14:31;;;;;;;10.43;7.83;;;5.80;99.90;;;;;;4943114;28;20035;-90
2021/12/25 03:16:36;;;;;;;10.87;8.30;;;5.80;99.90;;;;;;4956809;28;20041;-90
2021/12/25 03:19:04;;;;;;;10.30;7.90;;;5.80;99.90;;;;;;4958285;28;20034;-90
2021/12/25 03:21:29;;;;;;;10.37;8.23;;;5.70;99.90;;;;;;4942576;28;20022;-90
2021/12/25 03:23:55;;;;;;;9.70;7.90;;;5.70;99.90;;;;;;4942463;28;20033;-90
2021/12/25 03:26:21;;;;;;;10.00;8.30;;;5.70;99.90;;;;;;4958835;28;20026;-90
2021/12/25 03:28:50;;;;;;;9.70;7.90;;;5.60;99.90;;;;;;4942318;28;20030;-90
2021/12/25 03:31:19;;;;;;;11.05;8.23;;;5.60;99.90;;;;;;4942394;28;20026;-90
2021/12/25 03:33:52;;;;;;;10.77;8.50;;;5.60;99.90;;;;;;4942901;28;20045;-90
2021/12/25 03:36:19;;;;;;;10.07;7.97;;;5.70;99.90;;;;;;4943050;28;20133;-89
2021/12/25 03:38:45;;;;;;;11.40;8.27;;;5.70;99.90;;;;;;4942021;28;20117;-90
2021/12/25 03:41:12;;;;;;;10.53;8.23;;;5.60;99.90;;;;;;4942115;28;20493;-90
2021/12/25 03:43:40;;;;;;;10.63;8.50;;;5.60;99.90;;;;;;4942360;28;20030;-90
2021/12/25 03:46:09;;;;;;;12.17;8.83;;;5.60;99.90;;;;;;4942367;28;20114;-89
2021/12/25 03:59:18;;;;;;;12.17;9.47;;;5.60;99.90;;;;;;4958122;28;20039;-89
2021/12/25 04:01:51;;;;;;;10.87;8.50;;;5.50;99.90;;;;;;4958028;28;20434;-90
2021/12/25 04:04:36;;;;;;;11.10;8.80;;;5.60;99.90;;;;;;4942317;28;20034;-90
2021/12/25 04:09:33;;;;;;;10.73;8.03;;;5.50;99.90;;;;;;4957940;28;20026;-90
2021/12/25 04:12:05;;;;;;;10.82;8.63;;;5.50;99.90;;;;;;4942241;28;20402;-89
2021/12/25 04:14:33;;;;;;;10.47;8.20;;;5.50;99.90;;;;;;4957970;28;20035;-89
2021/12/25 04:16:59;;;;;;;10.77;8.67;;;5.50;99.90;;;;;;4941848;28;20375;-90
2021/12/25 04:19:25;;;;;;;9.97;7.90;;;5.40;99.90;;;;;;4941845;28;20157;-89
2021/12/25 04:21:57;;;;;;;10.83;8.17;;;5.50;99.90;;;;;;4957749;28;20490;-91
2021/12/25 04:24:24;;;;;;;11.27;8.57;;;5.40;99.90;;;;;;4941889;28;20030;-90
2021/12/25 04:26:51;;;;;;;12.37;9.40;;;5.40;99.90;;;;;;4941648;28;20486;-89
2021/12/25 04:29:36;;;;;;;12.53;9.20;;;5.30;99.90;;;;;;4941696;28;20182;-90
2021/12/25 04:47:47;;;;;;;13.57;9.90;;;5.30;99.90;;;;;;4957474;28;20031;-90
2021/12/25 05:02:02;;;;;;;13.30;8.93;;;5.30;99.90;;;;;;4957312;28;20045;-89
2021/12/25 05:04:53;;;;;;;13.33;9.13;;;5.40;99.90;;;;;;4949682;28;20035;-90
2021/12/25 05:07:22;;;;;;;11.93;8.50;;;5.30;99.90;;;;;;4941287;28;20034;-90
2021/12/25 05:09:49;;;;;;;12.40;9.03;;;5.20;99.90;;;;;;4941139;28;20031;-89
2021/12/25 05:12:14;;;;;;;12.20;9.00;;;5.20;99.90;;;;;;4940851;28;20030;-89
2021/12/25 05:14:41;;;;;;;12.20;8.93;;;5.30;99.90;;;;;;4941366;28;20470;-89
2021/12/25 05:17:08;;;;;;;12.50;9.23;;;5.20;99.90;;;;;;4956574;28;20073;-90
2021/12/25 05:19:34;;;;;;;13.83;10.13;;;5.20;99.90;;;;;;4956648;28;20119;-90
2021/12/25 05:22:00;;;;;;;14.53;10.90;;;5.20;99.90;;;;;;4940755;28;20110;-90
2021/12/25 05:24:27;;;;;;;18.90;13.30;;;5.20;99.90;;;;;;4956989;28;20053;-90
2021/12/25 05:26:57;;;;;;;18.40;13.13;;;5.20;99.90;;;;;;4941161;28;20399;-90
2021/12/25 05:29:25;;;;;;;16.10;12.10;;;5.20;99.90;;;;;;4940771;28;20031;-90
2021/12/25 05:31:53;;;;;;;20.03;13.67;;;5.10;99.90;;;;;;4940635;28;20033;-90
2021/12/25 05:34:21;;;;;;;17.52;13.52;;;5.20;99.90;;;;;;4940915;28;20413;-89
2021/12/25 05:36:53;;;;;;;19.13;13.87;;;5.20;99.90;;;;;;4940967;28;20117;-89
2021/12/25 05:39:42;;;;;;;19.33;14.77;;;5.10;99.90;;;;;;4943238;28;20027;-90
2021/12/25 05:42:09;;;;;;;16.38;12.80;;;5.10;99.90;;;;;;4956499;28;20030;-91
2021/12/25 05:44:35;;;;;;;16.03;12.27;;;5.00;99.90;;;;;;4940712;28;20086;-90
2021/12/25 05:47:23;;;;;;;17.33;12.47;;;5.00;99.90;;;;;;4956732;28;20031;-90
2021/12/25 05:49:52;;;;;;;17.30;12.73;;;5.00;99.90;;;;;;4940716;28;20030;-90
2021/12/25 05:52:25;;;;;;;15.60;12.10;;;5.00;99.90;;;;;;4956275;28;20036;-90
2021/12/25 05:55:15;;;;;;;14.33;10.60;;;5.00;99.90;;;;;;4943812;28;20031;-90
2021/12/25 05:58:03;;;;;;;15.60;10.97;;;5.00;99.90;;;;;;4959195;28;20089;-90
2021/12/25 06:00:54;;;;;;;14.10;10.33;;;4.90;99.90;;;;;;4958630;28;20039;-90
2021/12/25 06:03:20;;;;;;;14.60;10.40;;;4.90;99.90;;;;;;4940143;28;20130;-89
2021/12/25 06:05:47;;;;;;;17.47;13.20;;;4.80;99.90;;;;;;4940115;28;20023;-90
2021/12/25 06:08:13;;;;;;;20.40;13.63;;;4.80;99.90;;;;;;4940279;28;20030;-89
2021/12/25 06:10:41;;;;;;;18.97;14.07;;;4.80;99.90;;;;;;4956182;28;20054;-90
2021/12/25 06:13:11;;;;;;;19.57;13.90;;;4.80;99.90;;;;;;4940320;28;20037;-90
2021/12/25 06:15:37;;;;;;;18.70;13.63;;;4.80;99.90;;;;;;4940390;28;20035;-90
2021/12/25 06:18:22;;;;;;;17.87;13.90;;;4.80;99.90;;;;;;4958716;28;20050;-90
2021/12/25 06:20:57;;;;;;;16.93;12.43;;;4.70;99.90;;;;;;4955892;28;20050;-90
2021/12/25 06:23:33;;;;;;;15.93;11.87;;;4.80;99.90;;;;;;4941291;28;20035;-89
2021/12/25 06:26:19;;;;;;;15.50;10.93;;;4.70;99.90;;;;;;4958417;28;20118;-89
2021/12/25 06:28:56;;;;;;;15.07;11.10;;;4.70;99.90;;;;;;4941578;28;20054;-90
2021/12/25 06:31:54;;;;;;;15.03;10.93;;;4.70;99.90;;;;;;4939203;28;20035;-89
2021/12/25 06:34:40;;;;;;;17.53;12.00;;;4.60;99.90;;;;;;4962572;28;20056;-91
2021/12/25 06:37:36;;;;;;;15.67;11.80;;;4.60;99.90;;;;;;4943223;28;20039;-89
2021/12/25 06:40:25;;;;;;;17.27;12.37;;;4.60;99.90;;;;;;4942833;28;20125;-90
2021/12/25 06:42:51;;;;;;;17.37;12.57;;;4.50;99.90;;;;;;4939989;28;20051;-91
2021/12/25 06:45:16;;;;;;;16.40;12.50;;;4.50;99.90;;;;;;4939826;28;20031;-90
2021/12/25 06:47:43;;;;;;;17.27;12.57;;;4.50;99.90;;;;;;4939948;28;20035;-89
2021/12/25 06:50:16;;;;;;;19.27;13.53;;;4.50;99.90;;;;;;4940705;28;20033;-90
2021/12/25 06:53:03;;;;;;;17.50;12.93;;;4.40;99.90;;;;;;4942647;28;20038;-89
2021/12/25 06:55:55;;;;;;;19.90;13.37;;;4.40;99.90;;;;;;4959250;28;20031;-90
2021/12/25 06:58:31;;;;;;;18.20;13.17;;;4.40;99.90;;;;;;4943313;28;20378;-88
2021/12/25 07:00:57;;;;;;;16.93;12.73;;;4.40;99.90;;;;;;4943593;28;20042;-89
2021/12/25 07:03:26;;;;;;;20.27;13.87;;;4.30;99.90;;;;;;4943486;28;20118;-89
2021/12/25 07:06:11;;;;;;;19.30;13.33;;;4.30;99.90;;;;;;4961959;28;20042;-90
2021/12/25 07:08:55;;;;;;;19.63;13.53;;;4.20;99.90;;;;;;4976803;28;20418;-89
2021/12/25 07:11:47;;;;;;;21.67;13.87;;;4.30;99.90;;;;;;4940585;28;20110;-89
2021/12/25 07:14:28;;;;;;;19.30;13.93;;;4.30;99.90;;;;;;4944937;28;20054;-88
2021/12/25 07:17:14;;;;;;;19.90;13.27;;;4.30;99.90;;;;;;4961566;28;20026;-90
2021/12/25 07:19:52;;;;;;;17.33;12.60;;;4.20;99.90;;;;;;4958763;28;20034;-90
2021/12/25 07:22:41;;;;;;;17.73;12.77;;;4.20;99.90;;;;;;4954410;28;20027;-90
2021/12/25 07:25:31;;;;;;;19.67;13.60;;;4.20;99.90;;;;;;4946070;28;20622;-90
2021/12/25 07:28:14;;;;;;;17.87;12.67;;;4.20;99.90;;;;;;4945022;28;20073;-88
2021/12/25 07:30:40;;;;;;;19.00;13.03;;;4.20;99.90;;;;;;4959008;28;20125;-89
2021/12/25 07:33:06;;;;;;;17.17;12.50;;;4.20;99.90;;;;;;4958824;28;20116;-89
2021/12/25 07:35:32;;;;;;;17.63;11.90;;;4.20;99.90;;;;;;4942643;28;20037;-89
2021/12/25 07:37:58;;;;;;;17.50;11.60;;;4.20;99.90;;;;;;4942832;28;20074;-89
2021/12/25 07:40:24;;;;;;;19.00;12.13;;;4.20;99.90;;;;;;4942497;28;20163;-89
2021/12/25 07:42:49;;;;;;;16.07;11.30;;;4.10;99.90;;;;;;4942497;28;20043;-89
2021/12/25 07:45:34;;;;;;;15.47;10.90;;;4.20;99.90;;;;;;4961520;28;20038;-89
2021/12/25 07:48:02;;;;;;;14.07;10.37;;;4.10;99.90;;;;;;4942316;28;20402;-90
2021/12/25 07:50:30;;;;;;;16.70;10.70;;;4.10;99.90;;;;;;4942782;28;20037;-90
2021/12/25 07:52:57;;;;;;;14.50;10.00;;;4.10;99.90;;;;;;4958505;28;20038;-90
2021/12/25 07:55:24;;;;;;;15.90;10.37;;;4.10;99.90;;;;;;4942496;28;20457;-89
2021/12/25 07:57:50;;;;;;;15.37;10.40;;;4.10;99.90;;;;;;4942596;28;20578;-90
2021/12/25 08:00:18;;;;;;;14.97;10.23;;;4.10;99.90;;;;;;4942143;28;20125;-89
2021/12/25 08:02:45;;;;;;;14.53;10.00;;;4.00;99.90;;;;;;4958541;28;20043;-89
2021/12/25 08:05:11;;;;;;;16.33;10.53;;;4.00;99.90;;;;;;4942170;28;20093;-89
2021/12/25 08:07:38;;;;;;;16.33;10.70;;;4.00;99.90;;;;;;4941966;28;20059;-90
2021/12/25 08:10:14;;;;;;;17.13;10.70;;;3.90;99.90;;;;;;4940953;28;20401;-90
2021/12/25 08:12:51;;;;;;;15.63;11.03;;;3.90;99.90;;;;;;4942063;28;20030;-89
2021/12/25 08:15:21;;;;;;;16.33;11.20;;;3.90;99.90;;;;;;4942176;28;20046;-89
2021/12/25 08:17:51;;;;;;;19.20;11.67;;;4.00;99.90;;;;;;4957852;28;20035;-90
2021/12/25 08:20:30;;;;;;;16.10;10.53;;;4.00;99.90;;;;;;4959896;28;20031;-89
2021/12/25 08:23:16;;;;;;;15.73;10.37;;;3.90;99.90;;;;;;4940890;28;20033;-90
2021/12/25 08:26:02;;;;;;;14.27;10.27;;;3.90;99.90;;;;;;4960518;28;20090;-89
2021/12/25 08:29:04;;;;;;;14.13;10.20;;;3.90;99.90;;;;;;4915574;29;20163;-89
2021/12/25 08:31:48;;;;;;;14.87;10.30;;;3.90;99.90;;;;;;4956083;28;20493;-90
2021/12/25 08:34:42;;;;;;;17.03;10.07;;;3.80;99.90;;;;;;4961191;28;20027;-89
2021/12/25 08:37:12;;;;;;;14.33;10.00;;;3.90;99.90;;;;;;4957396;28;20038;-89
2021/12/25 08:39:39;;;;;;;13.23;9.37;;;3.90;99.90;;;;;;4956893;28;20110;-90
2021/12/25 08:42:06;;;;;;;12.90;9.07;;;3.90;99.90;;;;;;4941397;28;20030;-90
2021/12/25 08:44:38;;;;;;;15.90;9.40;;;3.90;99.90;;;;;;4941325;28;20027;-90
2021/12/25 08:47:07;;;;;;;13.27;9.33;;;3.90;99.90;;;;;;4941261;28;20027;-89
2021/12/25 08:49:36;;;;;;;12.60;8.87;;;3.90;99.90;;;;;;4941634;28;20106;-90
2021/12/25 08:52:11;;;;;;;11.70;8.77;;;3.90;99.90;;;;;;4941266;28;20288;-89
2021/12/25 08:54:38;;;;;;;12.90;9.80;;;3.90;99.90;;;;;;4941224;28;20374;-89
2021/12/25 08:57:05;;;;;;;11.57;8.80;;;3.90;99.90;;;;;;4941460;28;20038;-90
2021/12/25 08:59:34;;;;;;;14.67;8.87;;;3.90;99.90;;;;;;4941737;28;20539;-89
2021/12/25 09:02:02;;;;;;;11.10;8.10;;;3.90;99.90;;;;;;4941522;28;20147;-89
2021/12/25 09:04:28;;;;;;;12.60;8.90;;;3.90;99.90;;;;;;4956836;28;20062;-89
2021/12/25 09:06:53;;;;;;;10.63;8.17;;;3.90;99.90;;;;;;4956858;28;20066;-89
2021/12/25 09:09:20;;;;;;;11.10;8.17;;;3.90;99.90;;;;;;4956869;28;20027;-90
2021/12/25 09:11:46;;;;;;;11.70;7.77;;;3.90;99.90;;;;;;4940925;28;20030;-88
2021/12/25 09:14:12;;;;;;;10.23;7.57;;;3.90;99.90;;;;;;4940820;28;20035;-90
2021/12/25 09:16:38;;;;;;;11.57;8.20;;;3.80;99.90;;;;;;4957166;28;20034;-89
2021/12/25 09:19:04;;;;;;;13.60;7.77;;;3.80;99.90;;;;;;4940752;28;20081;-88
2021/12/25 09:21:30;;;;;;;10.73;7.77;;;3.80;99.90;;;;;;4956418;28;20173;-89
2021/12/25 09:23:56;;;;;;;11.00;7.17;;;3.80;99.90;;;;;;4956892;28;20106;-89
2021/12/25 09:26:21;;;;;;;9.80;7.20;;;3.80;99.90;;;;;;4956833;28;20022;-87
2021/12/25 09:28:48;;;;;;;11.77;7.00;;;3.80;99.90;;;;;;4940812;28;20502;-89
2021/12/25 09:31:14;;;;;;;9.83;6.17;;;3.70;99.90;;;;;;4941714;28;20154;-89
2021/12/25 09:33:40;;;;;;;8.90;6.23;;;3.70;99.90;;;;;;4974627;28;20026;-88
2021/12/25 09:36:06;;;;;;;8.50;6.00;;;3.70;99.90;;;;;;4956213;28;20057;-88
2021/12/25 09:38:34;;;;;;;9.37;6.00;;;3.70;99.90;;;;;;4941174;28;20085;-89
2021/12/25 09:41:01;;;;;;;9.00;6.10;;;3.60;99.90;;;;;;4940387;28;20034;-89
2021/12/25 09:43:28;;;;;;;6.97;5.47;;;3.70;99.90;;;;;;4940471;28;20023;-89
2021/12/25 09:45:54;;;;;;;7.33;5.30;;;3.70;99.90;;;;;;4940616;28;20497;-89
2021/12/25 09:48:20;;;;;;;7.77;5.73;;;3.70;99.90;;;;;;4956338;28;20117;-89
2021/12/25 09:50:47;;;;;;;7.63;4.83;;;3.60;99.90;;;;;;4956249;28;20041;-89
2021/12/25 09:53:15;;;;;;;8.33;5.07;;;3.60;99.90;;;;;;4940239;28;20039;-89
2021/12/25 09:55:42;;;;;;;6.47;4.77;;;3.60;99.90;;;;;;4940276;28;20041;-89
2021/12/25 09:58:08;;;;;;;7.37;4.60;;;3.70;99.90;;;;;;4940082;28;20042;-88
2021/12/25 10:00:41;;;;;;;7.37;4.67;;;3.70;99.90;;;;;;4939965;28;20026;-89
2021/12/25 10:03:08;;;;;;;6.27;4.30;;;3.70;99.90;;;;;;4940514;28;20042;-89
2021/12/25 10:05:37;;;;;;;7.37;4.93;;;3.60;99.90;;;;;;4958501;28;20497;-89
2021/12/25 10:08:11;;;;;;;7.80;4.95;;;3.60;99.90;;;;;;4951242;28;20026;-88
2021/12/25 10:10:44;;;;;;;7.03;5.03;;;3.60;99.90;;;;;;4940134;28;20039;-89
2021/12/25 10:13:18;;;;;;;6.20;4.90;;;3.60;99.90;;;;;;4955896;28;20069;-89
2021/12/25 10:15:43;;;;;;;7.77;5.23;;;3.60;99.90;;;;;;4940054;28;20042;-90
2021/12/25 10:18:09;;;;;;;8.60;5.03;;;3.50;99.90;;;;;;4955298;28;20031;-89
2021/12/25 10:20:35;;;;;;;7.30;4.93;;;3.50;99.90;;;;;;4939571;28;20056;-89
2021/12/25 10:23:16;;;;;;;6.87;4.47;;;3.50;99.90;;;;;;4939921;28;20031;-89
2021/12/25 10:25:51;;;;;;;7.07;4.67;;;3.50;99.90;;;;;;4955966;28;20027;-89
2021/12/25 10:28:26;;;;;;;8.00;4.90;;;3.50;99.90;;;;;;4955261;28;20027;-89
2021/12/25 10:31:08;;;;;;;6.50;4.30;;;3.50;99.90;;;;;;4955651;28;20031;-89
2021/12/25 10:33:40;;;;;;;8.23;5.00;;;3.60;99.90;;;;;;4958305;28;20035;-89
2021/12/25 10:36:22;;;;;;;6.90;4.40;;;3.60;99.90;;;;;;4943459;28;20125;-89
2021/12/25 10:39:08;;;;;;;8.37;3.90;;;3.60;99.90;;;;;;4959127;28;20508;-90
2021/12/25 10:41:37;;;;;;;7.60;3.80;;;3.60;99.90;;;;;;4959171;28;20035;-90
2021/12/25 10:44:24;;;;;;;6.05;3.70;;;3.60;99.90;;;;;;4943564;28;20564;-89
2021/12/25 10:47:00;;;;;;;8.23;3.83;;;3.60;99.90;;;;;;4943531;28;20201;-90
2021/12/25 10:49:30;;;;;;;7.10;3.77;;;3.60;99.90;;;;;;4943229;28;20077;-89
2021/12/25 10:52:08;;;;;;;5.30;3.30;;;3.60;99.90;;;;;;4943477;28;20441;-90
2021/12/25 10:54:41;;;;;;;5.60;2.97;;;3.60;99.90;;;;;;4943497;28;20640;-89
2021/12/25 10:57:07;;;;;;;6.47;3.30;;;3.60;99.90;;;;;;4943371;28;20477;-89
2021/12/25 10:59:48;;;;;;;5.07;3.13;;;3.70;99.90;;;;;;4958734;28;20034;-89
2021/12/25 11:02:35;;;;;;;4.97;2.97;;;3.80;99.90;;;;;;4944531;28;20405;-88
2021/12/25 11:05:14;;;;;;;3.83;2.70;;;3.80;99.90;;;;;;4943534;28;20034;-88
2021/12/25 11:07:40;;;;;;;5.70;2.95;;;3.80;99.90;;;;;;4959337;28;20027;-88
2021/12/25 11:10:14;;;;;;;5.53;2.70;;;3.70;99.90;;;;;;4943711;28;20090;-89
2021/12/25 11:12:41;;;;;;;5.57;2.87;;;3.70;99.90;;;;;;4959275;28;20027;-89
2021/12/25 11:15:15;;;;;;;5.20;2.80;;;3.60;99.90;;;;;;4959505;28;20085;-89
2021/12/25 11:17:43;;;;;;;6.43;2.50;;;3.60;99.90;;;;;;4958537;28;20035;-89
2021/12/25 11:20:18;;;;;;;4.23;2.23;;;3.70;99.90;;;;;;4943488;28;20122;-89
2021/12/25 11:22:46;;;;;;;5.37;2.50;;;3.70;99.90;;;;;;4943094;28;20089;-89
2021/12/25 11:25:12;;;;;;;5.30;2.20;;;3.70;99.90;;;;;;4959045;28;20038;-89
2021/12/25 11:27:38;;;;;;;6.13;2.73;;;3.70;99.90;;;;;;4958637;28;20030;-89
2021/12/25 11:30:05;;;;;;;3.80;2.57;;;3.70;99.90;;;;;;4958868;28;20549;-89
2021/12/25 11:32:31;;;;;;;6.43;2.40;;;3.70;99.90;;;;;;4942994;28;20053;-89
2021/12/25 11:35:00;;;;;;;3.53;2.23;;;3.70;99.90;;;;;;4942961;28;20478;-89
2021/12/25 11:37:27;;;;;;;4.05;2.20;;;3.60;99.90;;;;;;4942426;28;20398;-89
2021/12/25 11:39:55;;;;;;;5.80;2.40;;;3.70;99.90;;;;;;4942089;28;20035;-89
2021/12/25 11:42:24;;;;;;;4.17;2.43;;;3.60;99.90;;;;;;4958496;28;20030;-89
2021/12/25 11:44:53;;;;;;;4.22;1.90;;;3.60;99.90;;;;;;4942305;28;20119;-90
2021/12/25 11:47:38;;;;;;;5.03;2.50;;;3.70;99.90;;;;;;4942531;28;20041;-89
2021/12/25 11:50:14;;;;;;;4.73;2.40;;;3.70;99.90;;;;;;4942353;28;20094;-89
2021/12/25 11:52:47;;;;;;;4.17;2.40;;;3.70;99.90;;;;;;4942304;28;20062;-89
2021/12/25 11:58:43;;;;;;;3.97;2.40;;;3.60;99.90;;;;;;4935790;28;20149;-89
2021/12/25 12:01:21;;;;;;;4.83;2.20;;;3.60;99.90;;;;;;4942280;28;20073;-89
2021/12/25 12:03:57;;;;;;;4.20;2.23;;;3.60;99.90;;;;;;4958810;28;20034;-89
2021/12/25 12:06:47;;;;;;;5.20;2.20;;;3.60;99.90;;;;;;4942165;28;20505;-89
2021/12/25 12:09:20;;;;;;;4.43;2.30;;;3.60;99.90;;;;;;4958000;28;20031;-90
2021/12/25 12:12:11;;;;;;;4.83;2.20;;;3.70;99.90;;;;;;4957279;28;20035;-89
2021/12/25 12:15:14;;;;;;;3.83;2.20;;;3.60;99.90;;;;;;4960693;28;20042;-90
2021/12/25 12:18:23;;;;;;;5.80;3.00;;;3.60;99.90;;;;;;4975226;28;20509;-89
2021/12/25 12:20:57;;;;;;;4.40;2.00;;;3.60;99.90;;;;;;4957670;28;20556;-89
2021/12/25 12:24:11;;;;;;;3.90;2.30;;;3.60;99.90;;;;;;4942091;28;20123;-89
2021/12/25 12:26:49;;;;;;;2.97;1.87;;;3.70;99.90;;;;;;4917224;28;20086;-90
2021/12/25 12:29:37;;;;;;;3.63;2.00;;;3.70;99.90;;;;;;4941536;28;20027;-89
2021/12/25 12:32:04;;;;;;;3.92;1.88;;;3.70;99.90;;;;;;4975246;28;20039;-89
2021/12/25 12:34:30;;;;;;;3.60;1.97;;;3.70;99.90;;;;;;4958478;28;20070;-89
2021/12/25 12:37:14;;;;;;;4.20;2.20;;;3.70;99.90;;;;;;4941669;28;20085;-90
2021/12/25 12:40:07;;;;;;;4.57;2.30;;;3.70;99.90;;;;;;4942118;28;20038;-89
2021/12/25 12:42:43;;;;;;;3.90;1.90;;;3.60;99.90;;;;;;4950429;28;20046;-89
2021/12/25 12:45:21;;;;;;;3.10;1.80;;;3.60;99.90;;;;;;4957654;28;20393;-89
2021/12/25 12:48:12;;;;;;;3.20;1.57;;;3.60;99.90;;;;;;4941401;28;20035;-89
2021/12/25 12:50:40;;;;;;;4.37;2.10;;;3.60;99.90;;;;;;4957612;28;20482;-90
2021/12/25 12:53:07;;;;;;;3.73;1.87;;;3.50;99.90;;;;;;4957723;28;20065;-89
2021/12/25 12:55:37;;;;;;;2.63;1.67;;;3.60;99.90;;;;;;4941631;28;20116;-89
2021/12/25 12:58:06;;;;;;;2.93;1.60;;;3.50;99.90;;;;;;4957170;28;20038;-89
2021/12/25 13:00:32;;;;;;;3.00;1.70;;;3.60;99.90;;;;;;4941619;28;20078;-89
2021/12/25 13:02:58;;;;;;;2.97;1.43;;;3.60;99.90;;;;;;4958072;28;20442;-89
2021/12/25 13:05:28;;;;;;;4.50;1.80;;;3.60;99.90;;;;;;4941719;28;20089;-89
2021/12/25 13:07:56;;;;;;;3.40;1.50;;;3.60;99.90;;;;;;4941256;28;20094;-89
2021/12/25 13:10:35;;;;;;;2.73;1.70;;;3.60;99.90;;;;;;4957451;28;20041;-88
2021/12/25 13:13:06;;;;;;;;;;;3.60;99.90;;;;;;4941796;28;20395;-89
2021/12/25 13:15:34;;;;;;;2.77;1.50;;;3.60;99.90;;;;;;4941231;28;19914;-89
2021/12/25 13:18:06;;;;;;;4.73;1.53;;;3.60;99.90;;;;;;4940630;28;20054;-90
2021/12/25 13:20:49;;;;;;;3.37;1.50;;;3.60;99.90;;;;;;4940873;28;20444;-89
2021/12/25 13:23:27;;;;;;;3.47;1.60;;;3.60;99.90;;;;;;4957062;28;20027;-89
2021/12/25 13:26:00;;;;;;;2.53;1.40;;;3.70;99.90;;;;;;4940985;28;20512;-89
2021/12/25 13:28:29;;;;;;;3.37;1.83;;;3.70;99.90;;;;;;4956545;28;20132;-89
2021/12/25 13:31:01;;;;;;;4.20;1.60;;;3.70;99.90;;;;;;4940797;28;20027;-89
2021/12/25 13:33:30;;;;;;;3.07;1.40;;;3.80;99.90;;;;;;4940836;28;20039;-90
2021/12/25 13:36:17;;;;;;;3.78;1.50;;;3.80;99.90;;;;;;4956728;28;20031;-89
2021/12/25 13:38:54;;;;;;;3.17;1.40;;;3.80;99.90;;;;;;4956501;28;20048;-89
2021/12/25 13:41:33;;;;;;;3.07;1.63;;;3.80;99.90;;;;;;4940892;28;20050;-89
2021/12/25 13:44:08;;;;;;;4.85;1.60;;;3.80;99.90;;;;;;4974074;28;20037;-89
2021/12/25 13:46:45;;;;;;;4.27;1.70;;;3.80;99.90;;;;;;4956541;28;20046;-89
2021/12/25 13:49:45;;;;;;;3.40;1.50;;;3.80;99.90;;;;;;4956051;28;20031;-89
2021/12/25 13:52:35;;;;;;;3.00;1.60;;;3.80;99.90;;;;;;4909640;28;20602;-89
2021/12/25 13:55:11;;;;;;;3.87;1.80;;;3.70;99.90;;;;;;4940513;28;20170;-90
2021/12/25 13:57:42;;;;;;;4.10;1.40;;;3.70;99.90;;;;;;4940065;28;20542;-89
2021/12/25 14:00:13;;;;;;;3.83;1.47;;;3.70;99.90;;;;;;4956341;28;20050;-89
2021/12/25 14:02:45;;;;;;;2.93;1.37;;;3.70;99.90;;;;;;4956454;28;20437;-89
2021/12/25 14:05:12;;;;;;;3.80;1.40;;;3.70;99.90;;;;;;4956631;28;20490;-89
2021/12/25 14:07:39;;;;;;;2.97;1.07;;;3.70;99.90;;;;;;4939209;28;20033;-89
2021/12/25 14:10:12;;;;;;;4.20;1.33;;;3.70;99.90;;;;;;4940480;28;20033;-89
2021/12/25 14:12:41;;;;;;;3.77;1.50;;;3.70;99.90;;;;;;4941267;28;20090;-88
2021/12/25 14:15:09;;;;;;;3.10;1.13;;;3.70;99.90;;;;;;4940720;28;20031;-89
2021/12/25 14:17:36;;;;;;;2.70;1.20;;;3.70;99.90;;;;;;4956637;28;20041;-89
2021/12/25 14:20:16;;;;;;;3.07;1.77;;;3.70;99.90;;;;;;4940916;28;20034;-89